createdAt,value
2023-08-15T00:01:42.556Z,9.35
2023-08-15T00:04:11.224Z,6.57
2023-08-15T00:06:39.917Z,4.63
2023-08-15T00:09:08.939Z,4.97
2023-08-15T00:11:37.618Z,6.18
2023-08-15T00:14:06.586Z,5.55
2023-08-15T00:16:35.455Z,10.40
2023-08-15T00:19:05.923Z,4.80
2023-08-15T00:21:34.623Z,4.38
2023-08-15T00:24:03.282Z,6.95
2023-08-15T00:26:32.144Z,5.43
2023-08-15T00:29:01.565Z,7.90
2023-08-15T00:31:31.323Z,4.15
2023-08-15T00:34:00.002Z,5.95
2023-08-15T00:36:31.488Z,5.15
2023-08-15T00:39:04.028Z,4.28
2023-08-15T00:41:32.900Z,3.92
2023-08-15T00:44:01.562Z,3.85
2023-08-15T00:46:33.658Z,4.90
2023-08-15T00:49:02.929Z,3.70
2023-08-15T00:51:33.908Z,3.95
2023-08-15T00:54:04.098Z,4.00
2023-08-15T00:56:33.464Z,5.82
2023-08-15T00:59:03.345Z,5.78
2023-08-15T01:01:33.585Z,5.28
2023-08-15T01:04:04.234Z,4.72
2023-08-15T01:06:34.469Z,4.63
2023-08-15T01:09:03.568Z,5.60
2023-08-15T01:11:45.261Z,4.72
2023-08-15T01:14:21.645Z,6.47
2023-08-15T01:16:53.150Z,7.47
2023-08-15T01:19:36.332Z,3.20
2023-08-15T01:22:17.281Z,5.78
2023-08-15T01:24:50.029Z,3.28
2023-08-15T01:27:21.089Z,5.13
2023-08-15T01:29:50.693Z,7.60
2023-08-15T01:32:33.648Z,8.15
2023-08-15T01:35:14.174Z,6.28
2023-08-15T01:37:50.135Z,3.50
2023-08-15T01:40:24.500Z,6.10
2023-08-15T01:42:57.054Z,7.18
2023-08-15T01:45:29.999Z,5.05
2023-08-15T01:47:59.561Z,5.40
2023-08-15T01:50:28.701Z,5.50
2023-08-15T01:52:57.446Z,5.18
2023-08-15T01:55:27.889Z,4.28
2023-08-15T01:57:56.556Z,4.07
2023-08-15T02:00:25.279Z,3.53
2023-08-15T02:02:54.076Z,4.10
2023-08-15T02:05:23.059Z,5.30
2023-08-15T02:07:53.208Z,5.88
2023-08-15T02:10:21.936Z,4.40
2023-08-15T02:12:52.174Z,6.82
2023-08-15T02:15:21.177Z,4.88
2023-08-15T02:17:49.878Z,3.72
2023-08-15T02:20:18.977Z,3.72
2023-08-15T02:22:47.738Z,4.90
2023-08-15T02:25:16.565Z,3.55
2023-08-15T02:27:45.239Z,3.97
2023-08-15T02:30:15.869Z,5.05
2023-08-15T02:32:46.563Z,4.63
2023-08-15T02:35:15.431Z,5.50
2023-08-15T02:37:44.152Z,4.07
2023-08-15T02:40:14.305Z,6.38
2023-08-15T02:42:43.019Z,3.63
2023-08-15T02:45:12.335Z,4.38
2023-08-15T02:47:42.713Z,4.78
2023-08-15T02:50:11.817Z,5.63
2023-08-15T02:52:40.756Z,4.43
2023-08-15T02:55:10.011Z,4.78
2023-08-15T02:57:39.233Z,4.22
2023-08-15T03:00:10.408Z,5.63
2023-08-15T03:02:39.309Z,4.93
2023-08-15T03:05:10.348Z,6.13
2023-08-15T03:07:39.084Z,5.57
2023-08-15T03:10:09.019Z,4.65
2023-08-15T03:12:37.764Z,4.88
2023-08-15T03:15:07.572Z,5.50
2023-08-15T03:17:36.492Z,4.22
2023-08-15T03:20:10.542Z,7.18
2023-08-15T03:22:39.430Z,5.80
2023-08-15T03:25:10.214Z,5.38
2023-08-15T03:27:38.945Z,4.70
2023-08-15T03:30:09.620Z,5.15
2023-08-15T03:32:39.029Z,7.93
2023-08-15T03:35:10.275Z,7.88
2023-08-15T03:37:42.102Z,7.68
2023-08-15T03:40:12.283Z,5.47
2023-08-15T03:42:41.071Z,6.00
2023-08-15T03:45:10.670Z,5.22
2023-08-15T03:47:39.457Z,5.53
2023-08-15T03:50:10.461Z,3.90
2023-08-15T03:52:39.138Z,4.38
2023-08-15T03:55:08.919Z,7.25
2023-08-15T03:57:37.799Z,6.10
2023-08-15T04:00:07.886Z,4.20
2023-08-15T04:02:42.363Z,5.70
2023-08-15T04:05:13.563Z,4.90
2023-08-15T04:07:43.329Z,7.53
2023-08-15T04:10:13.316Z,7.30
2023-08-15T04:12:42.480Z,6.00
2023-08-15T04:15:12.280Z,5.90
2023-08-15T04:17:41.424Z,4.90
2023-08-15T04:20:13.850Z,8.30
2023-08-15T04:22:43.136Z,6.53
2023-08-15T04:25:11.909Z,6.72
2023-08-15T04:27:40.701Z,9.98
2023-08-15T04:30:10.612Z,5.57
2023-08-15T04:32:39.331Z,11.82
2023-08-15T04:35:09.553Z,6.95
2023-08-15T04:37:41.421Z,6.50
2023-08-15T04:40:15.193Z,6.68
2023-08-15T04:42:44.386Z,8.20
2023-08-15T04:45:13.220Z,8.85
2023-08-15T04:47:42.090Z,7.05
2023-08-15T04:50:11.977Z,7.03
2023-08-15T04:52:42.453Z,6.63
2023-08-15T04:55:14.371Z,7.22
2023-08-15T04:57:43.584Z,6.13
2023-08-15T05:00:16.637Z,8.50
2023-08-15T05:02:45.414Z,7.72
2023-08-15T05:05:15.036Z,7.63
2023-08-15T05:07:45.249Z,8.07
2023-08-15T05:10:14.031Z,5.00
2023-08-15T05:12:45.570Z,6.10
2023-08-15T05:15:14.851Z,6.65
2023-08-15T05:17:45.164Z,7.38
2023-08-15T05:20:15.943Z,5.88
2023-08-15T05:22:47.097Z,6.72
2023-08-15T05:25:15.925Z,8.82
2023-08-15T05:27:48.010Z,5.80
2023-08-15T05:30:17.169Z,9.32
2023-08-15T05:32:46.472Z,7.20
2023-08-15T05:35:15.262Z,7.50
2023-08-15T05:37:45.983Z,6.68
2023-08-15T05:40:16.058Z,7.65
2023-08-15T05:42:44.887Z,6.80
2023-08-15T05:45:13.594Z,6.15
2023-08-15T05:47:42.574Z,6.25
2023-08-15T05:50:12.149Z,7.57
2023-08-15T05:52:40.855Z,8.13
2023-08-15T05:55:11.331Z,7.78
2023-08-15T06:00:42.362Z,13.93
2023-08-15T06:03:11.609Z,10.85
2023-08-15T06:05:40.580Z,14.93
2023-08-15T06:08:09.720Z,8.50
2023-08-15T06:10:39.913Z,7.88
2023-08-15T06:13:08.884Z,10.20
2023-08-15T06:15:37.603Z,7.03
2023-08-15T06:18:06.739Z,10.30
2023-08-15T06:20:35.746Z,9.23
2023-08-15T06:23:04.604Z,7.55
2023-08-15T06:25:33.365Z,10.57
2023-08-15T06:28:03.661Z,9.23
2023-08-15T06:30:32.352Z,11.60
2023-08-15T06:33:01.625Z,7.55
2023-08-15T06:35:30.380Z,6.95
2023-08-15T06:37:59.064Z,11.43
2023-08-15T06:40:28.021Z,7.80
2023-08-15T06:42:56.773Z,8.98
2023-08-15T06:45:26.897Z,10.70
2023-08-15T06:47:56.034Z,6.57
2023-08-15T06:50:24.835Z,9.38
2023-08-15T06:52:53.498Z,6.90
2023-08-15T06:55:22.554Z,7.28
2023-08-15T06:57:51.195Z,7.60
2023-08-15T07:00:21.034Z,8.27
2023-08-15T07:02:51.630Z,10.15
2023-08-15T07:05:20.578Z,9.27
2023-08-15T07:07:49.319Z,9.35
2023-08-15T07:10:18.500Z,9.65
2023-08-15T07:12:47.932Z,9.40
2023-08-15T07:15:17.222Z,8.07
2023-08-15T07:17:45.971Z,7.93
2023-08-15T07:20:16.669Z,7.70
2023-08-15T07:22:46.242Z,9.38
2023-08-15T07:25:15.875Z,8.93
2023-08-15T07:27:45.133Z,8.90
2023-08-15T07:30:17.654Z,10.93
2023-08-15T07:32:46.940Z,10.75
2023-08-15T07:35:17.343Z,7.07
2023-08-15T07:37:49.305Z,7.85
2023-08-15T07:40:23.956Z,10.00
2023-08-15T07:42:55.960Z,11.00
2023-08-15T07:45:25.228Z,10.00
2023-08-15T07:47:54.788Z,8.48
2023-08-15T07:50:28.476Z,6.93
2023-08-15T07:52:59.581Z,7.70
2023-08-15T07:55:32.952Z,8.35
2023-08-15T07:58:02.175Z,13.18
2023-08-15T08:00:31.282Z,10.20
2023-08-15T08:03:01.529Z,8.93
2023-08-15T08:05:34.242Z,7.07
2023-08-15T08:08:04.433Z,8.38
2023-08-15T08:10:33.723Z,8.40
2023-08-15T08:13:02.781Z,10.02
2023-08-15T08:15:32.919Z,8.90
2023-08-15T08:18:01.840Z,9.98
2023-08-15T08:20:32.109Z,7.43
2023-08-15T08:23:01.014Z,10.30
2023-08-15T08:25:30.565Z,7.15
2023-08-15T08:27:59.337Z,8.27
2023-08-15T08:30:30.093Z,10.25
2023-08-15T08:33:00.304Z,7.57
2023-08-15T08:35:29.735Z,7.78
2023-08-15T08:38:00.455Z,7.72
2023-08-15T08:40:30.486Z,8.20
2023-08-15T08:43:00.316Z,7.55
2023-08-15T08:45:33.160Z,9.57
2023-08-15T08:48:04.369Z,7.85
2023-08-15T08:50:34.659Z,7.50
2023-08-15T08:53:05.290Z,8.10
2023-08-15T08:55:36.041Z,7.50
2023-08-15T08:58:08.283Z,9.80
2023-08-15T09:00:38.311Z,8.15
2023-08-15T09:03:07.458Z,8.65
2023-08-15T09:05:36.874Z,8.60
2023-08-15T09:08:08.550Z,7.93
2023-08-15T09:10:37.333Z,7.57
2023-08-15T09:13:07.159Z,8.23
2023-08-15T09:15:36.588Z,8.40
2023-08-15T09:18:08.162Z,10.95
2023-08-15T09:20:48.013Z,8.00
2023-08-15T09:23:19.337Z,6.60
2023-08-15T09:25:48.806Z,6.35
2023-08-15T09:28:17.747Z,11.00
2023-08-15T09:30:54.748Z,6.72
2023-08-15T09:33:23.601Z,6.40
2023-08-15T09:35:59.056Z,8.35
2023-08-15T09:38:30.946Z,10.30
2023-08-15T09:41:01.168Z,6.35
2023-08-15T09:43:31.452Z,9.10
2023-08-15T09:46:01.968Z,6.72
2023-08-15T09:48:31.500Z,6.35
2023-08-15T09:51:01.116Z,8.52
2023-08-15T09:53:31.988Z,8.25
2023-08-15T09:56:00.715Z,7.13
2023-08-15T09:58:29.484Z,7.28
2023-08-15T10:01:00.449Z,10.40
2023-08-15T10:03:37.283Z,9.75
2023-08-15T10:06:10.754Z,10.13
2023-08-15T10:08:44.604Z,10.05
2023-08-15T10:11:13.667Z,9.43
2023-08-15T10:13:43.070Z,8.48
2023-08-15T10:16:15.114Z,6.32
2023-08-15T10:18:55.583Z,6.10
2023-08-15T10:21:24.730Z,10.20
2023-08-15T10:24:04.753Z,6.25
2023-08-15T10:26:34.018Z,9.05
2023-08-15T10:29:05.626Z,9.20
2023-08-15T10:31:40.606Z,7.95
2023-08-15T10:34:12.965Z,9.05
2023-08-15T10:36:44.265Z,8.65
2023-08-15T10:39:17.611Z,10.05
2023-08-15T10:41:46.403Z,7.30
2023-08-15T10:44:18.489Z,6.38
2023-08-15T10:46:47.706Z,12.15
2023-08-15T10:49:21.052Z,15.38
2023-08-15T10:51:49.876Z,8.52
2023-08-15T10:54:20.214Z,8.25
2023-08-15T10:56:50.238Z,10.65
2023-08-15T10:59:20.500Z,7.20
2023-08-15T11:01:49.781Z,6.85
2023-08-15T11:04:20.895Z,11.35
2023-08-15T11:06:53.656Z,8.13
2023-08-15T11:09:31.329Z,8.30
2023-08-15T11:12:08.789Z,7.05
2023-08-15T11:14:37.917Z,6.57
2023-08-15T11:17:08.227Z,7.55
2023-08-15T11:19:37.108Z,7.97
2023-08-15T11:22:06.444Z,6.97
2023-08-15T11:24:36.725Z,7.28
2023-08-15T11:27:07.910Z,7.68
2023-08-15T11:29:37.012Z,8.73
2023-08-15T11:32:07.085Z,6.35
2023-08-15T11:34:36.563Z,8.52
2023-08-15T11:37:06.979Z,7.88
2023-08-15T11:39:37.893Z,7.60
2023-08-15T11:42:07.282Z,8.90
2023-08-15T11:44:36.258Z,9.48
2023-08-15T11:47:09.102Z,7.28
2023-08-15T11:49:46.171Z,7.63
2023-08-15T11:52:15.268Z,8.20
2023-08-15T11:54:47.542Z,7.32
2023-08-15T11:57:16.511Z,6.60
2023-08-15T11:59:45.442Z,9.10
2023-08-15T12:02:14.411Z,7.70
2023-08-15T12:04:43.077Z,7.68
2023-08-15T12:07:12.137Z,9.35
2023-08-15T12:09:41.593Z,8.50
2023-08-15T12:12:21.091Z,7.38
2023-08-15T12:14:51.491Z,7.63
2023-08-15T12:17:21.612Z,6.55
2023-08-15T12:19:50.374Z,9.35
2023-08-15T12:22:19.573Z,8.68
2023-08-15T12:24:48.597Z,7.00
2023-08-15T12:27:19.737Z,7.50
2023-08-15T12:30:13.654Z,8.57
2023-08-15T12:32:37.992Z,9.38
2023-08-15T12:35:08.059Z,7.63
2023-08-15T12:37:37.370Z,7.50
2023-08-15T12:40:14.811Z,5.55
2023-08-15T12:42:52.630Z,7.38
2023-08-15T12:45:21.758Z,7.03
2023-08-15T12:47:51.079Z,5.75
2023-08-15T12:50:20.265Z,6.28
2023-08-15T12:52:49.096Z,8.90
2023-08-15T12:55:18.364Z,6.32
2023-08-15T12:57:47.210Z,7.32
2023-08-15T13:00:19.640Z,9.77
2023-08-15T13:02:48.699Z,6.68
2023-08-15T13:05:17.852Z,7.03
2023-08-15T13:07:46.840Z,8.57
2023-08-15T13:10:15.828Z,11.15
2023-08-15T13:12:44.874Z,8.60
2023-08-15T13:15:13.761Z,6.30
2023-08-15T13:17:44.997Z,10.38
2023-08-15T13:20:15.871Z,10.82
2023-08-15T13:22:44.722Z,6.78
2023-08-15T13:25:13.529Z,8.48
2023-08-15T13:27:42.222Z,6.18
2023-08-15T13:30:11.536Z,6.80
2023-08-15T13:44:13.893Z,15.15
2023-08-15T13:46:42.696Z,6.60
2023-08-15T13:49:12.710Z,7.25
2023-08-15T13:51:43.598Z,7.57
2023-08-15T13:54:13.227Z,7.88
2023-08-15T13:56:42.483Z,10.27
2023-08-15T13:59:12.656Z,7.25
2023-08-15T14:01:41.468Z,13.30
2023-08-15T14:04:13.360Z,8.60
2023-08-15T14:06:42.328Z,6.57
2023-08-15T14:09:11.064Z,9.35
2023-08-15T14:11:39.962Z,8.02
2023-08-15T14:14:08.693Z,10.63
2023-08-15T14:16:38.814Z,11.00
2023-08-15T14:19:07.874Z,11.63
2023-08-15T14:21:36.591Z,9.48
2023-08-15T14:24:05.717Z,12.45
2023-08-15T14:26:34.507Z,10.43
2023-08-15T14:29:03.224Z,6.90
2023-08-15T14:31:32.645Z,8.65
2023-08-15T14:34:02.766Z,12.30
2023-08-15T14:36:31.665Z,10.55
2023-08-15T14:39:00.404Z,11.88
2023-08-15T14:41:29.121Z,8.48
2023-08-15T14:43:57.822Z,8.25
2023-08-15T14:46:26.665Z,8.95
2023-08-15T14:48:55.444Z,7.22
2023-08-15T14:51:25.553Z,10.25
2023-08-15T14:53:54.244Z,9.88
2023-08-15T14:56:26.587Z,8.73
2023-08-15T14:58:55.560Z,8.68
2023-08-15T15:01:24.387Z,11.38
2023-08-15T15:03:53.312Z,14.30
2023-08-15T15:06:22.037Z,10.85
2023-08-15T15:08:52.207Z,8.43
2023-08-15T15:11:20.953Z,11.05
2023-08-15T15:13:49.923Z,10.95
2023-08-15T15:16:18.809Z,9.38
2023-08-15T15:18:47.463Z,8.85
2023-08-15T15:21:16.169Z,10.68
2023-08-15T15:23:44.958Z,10.70
2023-08-15T15:26:15.080Z,10.82
2023-08-15T15:28:46.281Z,8.02
2023-08-15T15:31:22.704Z,8.27
2023-08-15T15:34:04.458Z,9.63
2023-08-15T15:36:48.762Z,10.93
2023-08-15T15:39:17.709Z,8.88
2023-08-15T15:41:48.427Z,12.38
2023-08-15T15:44:17.420Z,12.30
2023-08-15T15:46:54.524Z,9.48
2023-08-15T15:49:23.698Z,9.52
2023-08-15T15:51:52.662Z,10.35
2023-08-15T15:54:21.629Z,9.15
2023-08-15T15:56:51.961Z,10.13
2023-08-15T15:59:21.772Z,7.90
2023-08-15T16:01:53.483Z,9.45
2023-08-15T16:04:22.717Z,8.82
2023-08-15T16:06:52.227Z,8.57
2023-08-15T16:09:23.552Z,11.52
2023-08-15T16:11:54.969Z,10.32
2023-08-15T16:14:25.088Z,9.77
2023-08-15T16:16:54.792Z,10.05
2023-08-15T16:19:24.474Z,10.25
2023-08-15T16:21:54.307Z,14.77
2023-08-15T16:24:24.415Z,10.00
2023-08-15T16:26:55.198Z,8.68
2023-08-15T16:29:24.323Z,9.15
2023-08-15T16:31:53.289Z,10.13
2023-08-15T16:34:22.819Z,10.07
2023-08-15T16:36:51.771Z,10.30
2023-08-15T16:39:20.561Z,11.38
2023-08-15T16:41:49.340Z,10.95
2023-08-15T16:44:20.721Z,11.55
2023-08-15T16:46:49.708Z,12.88
2023-08-15T16:49:18.791Z,10.50
2023-08-15T16:51:51.218Z,11.70
2023-08-15T16:54:20.333Z,9.45
2023-08-15T16:56:52.043Z,11.18
2023-08-15T16:59:22.293Z,9.93
2023-08-15T17:01:51.119Z,8.02
2023-08-15T17:04:19.960Z,10.43
2023-08-15T17:06:48.854Z,9.50
2023-08-15T17:09:18.385Z,8.77
2023-08-15T17:11:47.276Z,10.70
2023-08-15T17:14:17.756Z,11.55
2023-08-15T17:16:48.321Z,12.48
2023-08-15T17:19:19.377Z,8.52
2023-08-15T17:21:48.733Z,9.30
2023-08-15T17:24:18.762Z,10.20
2023-08-15T17:26:47.807Z,11.57
2023-08-15T17:29:16.609Z,14.05
2023-08-15T17:31:46.354Z,12.02
2023-08-15T17:34:16.737Z,22.65
2023-08-15T17:36:45.991Z,31.58
2023-08-15T17:39:15.109Z,13.52
2023-08-15T17:41:46.034Z,19.45
2023-08-15T17:44:15.039Z,15.50
2023-08-15T17:46:43.909Z,18.55
2023-08-15T17:49:12.756Z,15.85
2023-08-15T17:51:42.904Z,14.07
2023-08-15T17:54:11.974Z,10.13
2023-08-15T17:56:40.710Z,13.23
2023-08-15T17:59:09.594Z,8.95
2023-08-15T18:01:38.741Z,14.77
2023-08-15T18:04:08.171Z,16.13
2023-08-15T18:09:29.962Z,14.40
2023-08-15T18:12:01.295Z,13.43
2023-08-15T18:14:30.224Z,14.00
2023-08-15T18:16:59.479Z,11.85
2023-08-15T18:19:28.368Z,12.98
2023-08-15T18:22:00.293Z,11.07
2023-08-15T18:24:31.256Z,11.50
2023-08-15T18:27:00.125Z,11.18
2023-08-15T18:29:31.353Z,10.35
2023-08-15T18:32:00.511Z,13.05
2023-08-15T18:34:30.370Z,11.20
2023-08-15T18:36:59.444Z,9.90
2023-08-15T18:39:29.945Z,11.38
2023-08-15T18:41:58.708Z,10.90
2023-08-15T18:44:28.010Z,12.82
2023-08-15T18:46:57.495Z,10.77
2023-08-15T18:49:28.375Z,11.05
2023-08-15T18:51:57.136Z,11.73
2023-08-15T18:54:28.104Z,15.57
2023-08-15T18:56:58.737Z,10.57
2023-08-15T18:59:27.500Z,10.82
2023-08-15T19:01:56.463Z,11.10
2023-08-15T19:04:26.328Z,9.75
2023-08-15T19:06:55.416Z,8.18
2023-08-15T19:09:24.339Z,11.95
2023-08-15T19:11:53.035Z,9.18
2023-08-15T19:14:23.295Z,11.20
2023-08-15T19:16:52.050Z,9.93
2023-08-15T19:19:20.848Z,9.23
2023-08-15T19:21:49.795Z,9.70
2023-08-15T19:24:19.251Z,10.98
2023-08-15T19:26:48.295Z,11.20
2023-08-15T19:29:17.051Z,7.90
2023-08-15T19:31:48.296Z,8.88
2023-08-15T19:34:20.203Z,11.82
2023-08-15T19:36:49.363Z,10.20
2023-08-15T19:39:18.169Z,9.90
2023-08-15T19:41:50.538Z,10.55
2023-08-15T19:44:19.427Z,10.40
2023-08-15T19:46:49.661Z,11.15
2023-08-15T19:49:18.335Z,11.68
2023-08-15T19:51:50.396Z,14.15
2023-08-15T19:54:19.711Z,14.43
2023-08-15T19:56:48.531Z,13.38
2023-08-15T19:59:18.065Z,18.95
2023-08-15T20:01:49.358Z,22.00
2023-08-15T20:04:21.759Z,19.67
2023-08-15T20:06:51.441Z,20.42
2023-08-15T20:09:22.433Z,23.55
2023-08-15T20:11:51.652Z,21.42
2023-08-15T20:14:22.305Z,19.98
2023-08-15T20:16:52.594Z,18.63
2023-08-15T20:19:21.631Z,18.67
2023-08-15T20:21:51.684Z,16.73
2023-08-15T20:24:20.796Z,17.92
2023-08-15T20:26:49.603Z,17.90
2023-08-15T20:29:18.562Z,18.17
2023-08-15T20:31:47.348Z,19.20
2023-08-15T20:34:17.449Z,15.65
2023-08-15T20:36:46.252Z,14.55
2023-08-15T20:39:14.907Z,17.30
2023-08-15T20:41:43.713Z,12.50
2023-08-15T20:44:12.368Z,14.80
2023-08-15T20:46:42.151Z,10.52
2023-08-15T20:49:11.452Z,13.20
2023-08-15T20:51:41.719Z,14.55
2023-08-15T20:54:10.403Z,12.52
2023-08-15T20:56:41.169Z,12.82
2023-08-15T20:59:09.982Z,12.95
2023-08-15T21:01:38.874Z,13.00
2023-08-15T21:04:08.261Z,14.30
2023-08-15T21:06:37.297Z,13.85
2023-08-15T21:09:08.036Z,14.85
2023-08-15T21:11:36.864Z,15.38
2023-08-15T21:14:06.059Z,15.15
2023-08-15T21:16:35.077Z,14.57
2023-08-15T21:19:03.804Z,14.55
2023-08-15T21:21:32.433Z,14.60
2023-08-15T21:24:01.136Z,13.05
2023-08-15T21:26:31.454Z,13.02
2023-08-15T21:29:00.173Z,14.80
2023-08-15T21:31:30.096Z,13.52
2023-08-15T21:33:59.008Z,11.57
2023-08-15T21:36:27.629Z,12.40
2023-08-15T21:38:56.306Z,13.20
2023-08-15T21:41:25.534Z,11.48
2023-08-15T21:43:55.866Z,14.25
2023-08-15T21:46:24.761Z,10.98
2023-08-15T21:48:53.577Z,10.40
2023-08-15T21:51:22.271Z,12.73
2023-08-15T21:53:51.055Z,15.10
2023-08-15T21:56:19.853Z,14.43
2023-08-15T21:58:48.459Z,17.85
2023-08-15T22:01:18.528Z,14.65
2023-08-15T22:03:47.420Z,13.57
2023-08-15T22:06:16.285Z,13.52
2023-08-15T22:08:44.954Z,12.38
2023-08-15T22:11:14.372Z,11.43
2023-08-15T22:13:43.246Z,11.30
2023-08-15T22:16:12.015Z,12.23
2023-08-15T22:18:42.064Z,13.13
2023-08-15T22:21:11.183Z,9.80
2023-08-15T22:23:39.949Z,10.20
2023-08-15T22:26:08.587Z,10.30
2023-08-15T22:28:37.248Z,9.93
2023-08-15T22:31:05.945Z,13.15
2023-08-15T22:33:34.881Z,9.77
2023-08-15T22:36:05.518Z,9.50
2023-08-15T22:38:34.445Z,10.23
2023-08-15T22:41:03.217Z,13.82
2023-08-15T22:43:31.929Z,11.73
2023-08-15T22:46:00.703Z,11.90
2023-08-15T22:48:29.503Z,9.63
2023-08-15T22:50:58.368Z,12.68
2023-08-15T22:53:28.444Z,10.23
2023-08-15T22:56:01.525Z,10.82
2023-08-15T22:58:30.607Z,11.13
2023-08-15T23:00:59.430Z,11.43
2023-08-15T23:03:28.616Z,9.75
2023-08-15T23:06:03.327Z,14.27
2023-08-15T23:08:33.438Z,11.13
2023-08-15T23:11:02.190Z,12.90
2023-08-15T23:13:31.030Z,9.18
2023-08-15T23:15:59.894Z,12.80
2023-08-15T23:18:28.658Z,10.68
2023-08-15T23:20:57.502Z,11.90
2023-08-15T23:23:26.208Z,11.00
2023-08-15T23:25:56.263Z,12.50
2023-08-15T23:28:24.960Z,11.20
2023-08-15T23:30:53.880Z,13.32
2023-08-15T23:33:22.621Z,12.55
2023-08-15T23:35:51.491Z,13.45
2023-08-15T23:38:21.260Z,13.35
2023-08-15T23:40:49.959Z,13.25
2023-08-15T23:43:20.001Z,13.35
2023-08-15T23:45:49.130Z,12.93
2023-08-15T23:48:18.437Z,10.23
2023-08-15T23:50:48.213Z,9.90
2023-08-15T23:53:16.938Z,11.52
2023-08-15T23:55:45.652Z,16.17
2023-08-15T23:58:14.332Z,13.45
